sensor_id;sensor_type;location;lat;lon;timestamp;temperature;humidity
43651;DHT22;29247;50.944;5.382;2023-05-10T00:02:09;16.10;90.90
43651;DHT22;29247;50.944;5.382;2023-05-10T00:04:35;16.10;90.90
43651;DHT22;29247;50.944;5.382;2023-05-10T00:07:00;16.10;90.90
43651;DHT22;29247;50.944;5.382;2023-05-10T00:09:27;16.10;90.90
43651;DHT22;29247;50.944;5.382;2023-05-10T00:11:55;16.10;90.90
43651;DHT22;29247;50.944;5.382;2023-05-10T00:14:23;16.00;90.80
43651;DHT22;29247;50.944;5.382;2023-05-10T00:16:49;16.00;90.80
43651;DHT22;29247;50.944;5.382;2023-05-10T00:19:15;16.00;90.80
43651;DHT22;29247;50.944;5.382;2023-05-10T00:21:41;16.00;90.80
43651;DHT22;29247;50.944;5.382;2023-05-10T00:24:06;16.00;90.80
43651;DHT22;29247;50.944;5.382;2023-05-10T00:26:34;16.00;90.80
43651;DHT22;29247;50.944;5.382;2023-05-10T00:29:00;16.00;90.80
43651;DHT22;29247;50.944;5.382;2023-05-10T00:31:26;16.00;90.80
43651;DHT22;29247;50.944;5.382;2023-05-10T00:33:52;16.00;90.80
43651;DHT22;29247;50.944;5.382;2023-05-10T00:36:21;16.00;90.80
43651;DHT22;29247;50.944;5.382;2023-05-10T00:38:47;16.00;90.80
43651;DHT22;29247;50.944;5.382;2023-05-10T00:41:13;16.00;90.80
43651;DHT22;29247;50.944;5.382;2023-05-10T00:43:39;16.00;90.90
43651;DHT22;29247;50.944;5.382;2023-05-10T00:46:05;15.90;90.90
43651;DHT22;29247;50.944;5.382;2023-05-10T00:48:31;16.00;90.90
43651;DHT22;29247;50.944;5.382;2023-05-10T00:50:57;16.00;90.90
43651;DHT22;29247;50.944;5.382;2023-05-10T00:53:26;15.90;90.90
43651;DHT22;29247;50.944;5.382;2023-05-10T00:55:54;15.90;90.90
43651;DHT22;29247;50.944;5.382;2023-05-10T00:58:20;15.90;90.90
43651;DHT22;29247;50.944;5.382;2023-05-10T01:00:46;15.90;90.90
43651;DHT22;29247;50.944;5.382;2023-05-10T01:03:15;15.90;90.90
43651;DHT22;29247;50.944;5.382;2023-05-10T01:05:41;15.90;91.20
43651;DHT22;29247;50.944;5.382;2023-05-10T01:08:09;16.00;90.90
43651;DHT22;29247;50.944;5.382;2023-05-10T01:10:35;15.90;90.90
43651;DHT22;29247;50.944;5.382;2023-05-10T01:13:01;15.90;90.90
43651;DHT22;29247;50.944;5.382;2023-05-10T01:15:29;15.90;90.90
43651;DHT22;29247;50.944;5.382;2023-05-10T01:17:56;15.90;90.90
43651;DHT22;29247;50.944;5.382;2023-05-10T01:20:24;15.90;90.90
43651;DHT22;29247;50.944;5.382;2023-05-10T01:23:28;15.90;90.90
43651;DHT22;29247;50.944;5.382;2023-05-10T01:26:13;15.90;90.90
43651;DHT22;29247;50.944;5.382;2023-05-10T01:31:37;15.80;90.80
43651;DHT22;29247;50.944;5.382;2023-05-10T01:34:07;15.80;90.90
43651;DHT22;29247;50.944;5.382;2023-05-10T01:41:49;15.80;90.90
43651;DHT22;29247;50.944;5.382;2023-05-10T01:44:37;15.80;90.90
43651;DHT22;29247;50.944;5.382;2023-05-10T01:47:15;15.80;90.90
43651;DHT22;29247;50.944;5.382;2023-05-10T01:49:49;15.80;90.90
43651;DHT22;29247;50.944;5.382;2023-05-10T01:52:18;15.80;90.90
43651;DHT22;29247;50.944;5.382;2023-05-10T01:55:13;15.70;90.80
43651;DHT22;29247;50.944;5.382;2023-05-10T01:57:39;15.70;90.80
43651;DHT22;29247;50.944;5.382;2023-05-10T02:00:10;15.80;90.90
43651;DHT22;29247;50.944;5.382;2023-05-10T02:02:42;15.70;90.90
43651;DHT22;29247;50.944;5.382;2023-05-10T02:05:12;15.70;90.90
43651;DHT22;29247;50.944;5.382;2023-05-10T02:07:41;15.80;90.90
43651;DHT22;29247;50.944;5.382;2023-05-10T02:10:08;15.70;90.90
43651;DHT22;29247;50.944;5.382;2023-05-10T02:12:41;15.70;90.80
43651;DHT22;29247;50.944;5.382;2023-05-10T02:15:12;15.70;90.80
43651;DHT22;29247;50.944;5.382;2023-05-10T02:17:39;15.70;90.80
43651;DHT22;29247;50.944;5.382;2023-05-10T02:20:09;15.70;90.90
43651;DHT22;29247;50.944;5.382;2023-05-10T02:22:36;15.70;90.90
43651;DHT22;29247;50.944;5.382;2023-05-10T02:25:04;15.70;90.90
43651;DHT22;29247;50.944;5.382;2023-05-10T02:27:30;15.70;90.90
43651;DHT22;29247;50.944;5.382;2023-05-10T02:29:56;15.70;90.90
43651;DHT22;29247;50.944;5.382;2023-05-10T02:32:32;15.70;90.90
43651;DHT22;29247;50.944;5.382;2023-05-10T02:35:01;15.70;90.90
43651;DHT22;29247;50.944;5.382;2023-05-10T02:37:27;15.70;90.90
43651;DHT22;29247;50.944;5.382;2023-05-10T02:39:55;15.70;90.90
43651;DHT22;29247;50.944;5.382;2023-05-10T02:42:25;15.70;90.90
43651;DHT22;29247;50.944;5.382;2023-05-10T02:44:53;15.60;90.80
43651;DHT22;29247;50.944;5.382;2023-05-10T02:47:19;15.70;90.80
43651;DHT22;29247;50.944;5.382;2023-05-10T02:49:46;15.60;90.70
43651;DHT22;29247;50.944;5.382;2023-05-10T02:52:16;15.60;90.90
43651;DHT22;29247;50.944;5.382;2023-05-10T02:54:47;15.60;90.90
43651;DHT22;29247;50.944;5.382;2023-05-10T02:57:17;15.60;90.90
43651;DHT22;29247;50.944;5.382;2023-05-10T02:59:48;15.60;90.90
43651;DHT22;29247;50.944;5.382;2023-05-10T03:02:14;15.60;90.90
43651;DHT22;29247;50.944;5.382;2023-05-10T03:04:40;15.60;90.90
43651;DHT22;29247;50.944;5.382;2023-05-10T03:07:06;15.60;90.90
43651;DHT22;29247;50.944;5.382;2023-05-10T03:09:35;15.60;90.90
43651;DHT22;29247;50.944;5.382;2023-05-10T03:17:59;15.60;91.00
43651;DHT22;29247;50.944;5.382;2023-05-10T03:20:43;15.50;91.00
43651;DHT22;29247;50.944;5.382;2023-05-10T03:25:44;15.60;91.00
43651;DHT22;29247;50.944;5.382;2023-05-10T03:28:16;15.50;91.00
43651;DHT22;29247;50.944;5.382;2023-05-10T03:30:43;15.50;91.00
43651;DHT22;29247;50.944;5.382;2023-05-10T03:33:09;15.60;91.00
43651;DHT22;29247;50.944;5.382;2023-05-10T03:35:35;15.60;91.00
43651;DHT22;29247;50.944;5.382;2023-05-10T03:38:01;15.60;91.00
43651;DHT22;29247;50.944;5.382;2023-05-10T03:40:27;15.60;91.00
43651;DHT22;29247;50.944;5.382;2023-05-10T03:43:01;15.60;91.00
43651;DHT22;29247;50.944;5.382;2023-05-10T03:45:27;15.50;91.00
43651;DHT22;29247;50.944;5.382;2023-05-10T03:47:53;15.60;91.00
43651;DHT22;29247;50.944;5.382;2023-05-10T03:50:19;15.50;91.00
43651;DHT22;29247;50.944;5.382;2023-05-10T03:52:45;15.60;91.00
43651;DHT22;29247;50.944;5.382;2023-05-10T03:55:11;15.60;91.00
43651;DHT22;29247;50.944;5.382;2023-05-10T03:57:40;15.60;91.00
43651;DHT22;29247;50.944;5.382;2023-05-10T04:00:11;15.60;91.00
43651;DHT22;29247;50.944;5.382;2023-05-10T04:02:37;15.50;91.00
43651;DHT22;29247;50.944;5.382;2023-05-10T04:05:06;15.60;91.00
43651;DHT22;29247;50.944;5.382;2023-05-10T04:07:32;15.60;91.00
43651;DHT22;29247;50.944;5.382;2023-05-10T04:09:57;15.50;91.00
43651;DHT22;29247;50.944;5.382;2023-05-10T04:12:23;15.60;91.10
43651;DHT22;29247;50.944;5.382;2023-05-10T04:14:49;15.60;91.00
43651;DHT22;29247;50.944;5.382;2023-05-10T04:17:15;15.50;91.00
43651;DHT22;29247;50.944;5.382;2023-05-10T04:19:43;15.50;91.00
43651;DHT22;29247;50.944;5.382;2023-05-10T04:22:11;15.50;90.90
43651;DHT22;29247;50.944;5.382;2023-05-10T04:24:39;15.50;90.90
43651;DHT22;29247;50.944;5.382;2023-05-10T04:27:05;15.50;91.00
43651;DHT22;29247;50.944;5.382;2023-05-10T04:29:31;15.50;91.00
43651;DHT22;29247;50.944;5.382;2023-05-10T04:31:57;15.50;91.00
43651;DHT22;29247;50.944;5.382;2023-05-10T04:34:23;15.50;91.00
43651;DHT22;29247;50.944;5.382;2023-05-10T04:36:49;15.50;91.00
43651;DHT22;29247;50.944;5.382;2023-05-10T04:39:14;15.50;91.00
43651;DHT22;29247;50.944;5.382;2023-05-10T04:41:40;15.50;91.00
43651;DHT22;29247;50.944;5.382;2023-05-10T04:44:11;15.50;91.30
43651;DHT22;29247;50.944;5.382;2023-05-10T04:46:37;15.50;91.10
43651;DHT22;29247;50.944;5.382;2023-05-10T04:49:05;15.50;91.00
43651;DHT22;29247;50.944;5.382;2023-05-10T04:51:30;15.50;91.00
43651;DHT22;29247;50.944;5.382;2023-05-10T04:53:57;15.50;91.00
43651;DHT22;29247;50.944;5.382;2023-05-10T04:56:25;15.50;91.10
43651;DHT22;29247;50.944;5.382;2023-05-10T04:58:51;15.50;91.00
43651;DHT22;29247;50.944;5.382;2023-05-10T05:01:16;15.40;91.00
43651;DHT22;29247;50.944;5.382;2023-05-10T05:03:42;15.40;91.00
43651;DHT22;29247;50.944;5.382;2023-05-10T05:06:08;15.40;91.00
43651;DHT22;29247;50.944;5.382;2023-05-10T05:08:34;15.40;91.00
43651;DHT22;29247;50.944;5.382;2023-05-10T05:11:03;15.40;91.10
43651;DHT22;29247;50.944;5.382;2023-05-10T05:13:31;15.40;91.00
43651;DHT22;29247;50.944;5.382;2023-05-10T05:16:00;15.40;91.10
43651;DHT22;29247;50.944;5.382;2023-05-10T05:18:26;15.40;91.10
43651;DHT22;29247;50.944;5.382;2023-05-10T05:20:52;15.30;91.00
43651;DHT22;29247;50.944;5.382;2023-05-10T05:23:20;15.30;91.10
43651;DHT22;29247;50.944;5.382;2023-05-10T05:25:51;15.30;91.10
43651;DHT22;29247;50.944;5.382;2023-05-10T05:28:18;15.30;91.10
43651;DHT22;29247;50.944;5.382;2023-05-10T05:30:44;15.30;91.10
43651;DHT22;29247;50.944;5.382;2023-05-10T05:33:10;15.30;91.20
43651;DHT22;29247;50.944;5.382;2023-05-10T05:35:37;15.30;91.10
43651;DHT22;29247;50.944;5.382;2023-05-10T05:38:03;15.30;91.10
43651;DHT22;29247;50.944;5.382;2023-05-10T05:40:31;15.30;91.10
43651;DHT22;29247;50.944;5.382;2023-05-10T05:42:57;15.30;91.10
43651;DHT22;29247;50.944;5.382;2023-05-10T05:45:22;15.30;91.10
43651;DHT22;29247;50.944;5.382;2023-05-10T05:47:48;15.30;91.10
43651;DHT22;29247;50.944;5.382;2023-05-10T05:50:15;15.30;91.10
43651;DHT22;29247;50.944;5.382;2023-05-10T05:52:40;15.30;91.10
43651;DHT22;29247;50.944;5.382;2023-05-10T05:55:06;15.30;91.10
43651;DHT22;29247;50.944;5.382;2023-05-10T05:57:32;15.30;91.10
43651;DHT22;29247;50.944;5.382;2023-05-10T05:59:58;15.30;91.10
43651;DHT22;29247;50.944;5.382;2023-05-10T06:02:24;15.30;91.10
43651;DHT22;29247;50.944;5.382;2023-05-10T06:04:52;15.30;91.20
43651;DHT22;29247;50.944;5.382;2023-05-10T06:07:18;15.40;91.20
43651;DHT22;29247;50.944;5.382;2023-05-10T06:09:44;15.40;91.30
43651;DHT22;29247;50.944;5.382;2023-05-10T06:12:10;15.40;91.20
43651;DHT22;29247;50.944;5.382;2023-05-10T06:14:37;15.50;91.30
43651;DHT22;29247;50.944;5.382;2023-05-10T06:17:02;15.50;91.30
43651;DHT22;29247;50.944;5.382;2023-05-10T06:19:30;15.50;91.20
43651;DHT22;29247;50.944;5.382;2023-05-10T06:21:58;15.60;91.20
43651;DHT22;29247;50.944;5.382;2023-05-10T06:24:24;15.60;91.20
43651;DHT22;29247;50.944;5.382;2023-05-10T06:26:53;15.50;91.20
43651;DHT22;29247;50.944;5.382;2023-05-10T06:29:18;15.60;91.10
43651;DHT22;29247;50.944;5.382;2023-05-10T06:31:47;15.60;91.20
43651;DHT22;29247;50.944;5.382;2023-05-10T06:34:16;15.60;91.20
43651;DHT22;29247;50.944;5.382;2023-05-10T06:36:41;15.60;91.10
43651;DHT22;29247;50.944;5.382;2023-05-10T06:39:07;15.60;91.10
43651;DHT22;29247;50.944;5.382;2023-05-10T06:41:33;15.60;91.10
43651;DHT22;29247;50.944;5.382;2023-05-10T06:44:06;15.60;91.10
43651;DHT22;29247;50.944;5.382;2023-05-10T06:46:37;15.70;91.10
43651;DHT22;29247;50.944;5.382;2023-05-10T06:49:02;15.70;91.10
43651;DHT22;29247;50.944;5.382;2023-05-10T06:51:28;15.70;91.00
43651;DHT22;29247;50.944;5.382;2023-05-10T06:53:56;15.70;91.00
43651;DHT22;29247;50.944;5.382;2023-05-10T06:56:22;15.70;91.00
43651;DHT22;29247;50.944;5.382;2023-05-10T06:58:48;15.70;91.00
43651;DHT22;29247;50.944;5.382;2023-05-10T07:01:14;15.70;91.00
43651;DHT22;29247;50.944;5.382;2023-05-10T07:03:40;15.80;91.00
43651;DHT22;29247;50.944;5.382;2023-05-10T07:06:06;15.80;91.00
43651;DHT22;29247;50.944;5.382;2023-05-10T07:08:35;15.80;91.00
43651;DHT22;29247;50.944;5.382;2023-05-10T07:11:05;15.80;91.00
43651;DHT22;29247;50.944;5.382;2023-05-10T07:13:31;15.80;91.30
43651;DHT22;29247;50.944;5.382;2023-05-10T07:15:58;15.80;90.90
43651;DHT22;29247;50.944;5.382;2023-05-10T07:18:26;15.80;90.90
43651;DHT22;29247;50.944;5.382;2023-05-10T07:20:52;15.80;90.90
43651;DHT22;29247;50.944;5.382;2023-05-10T07:23:18;15.80;90.90
43651;DHT22;29247;50.944;5.382;2023-05-10T07:25:48;15.80;90.90
43651;DHT22;29247;50.944;5.382;2023-05-10T07:28:15;15.80;90.90
43651;DHT22;29247;50.944;5.382;2023-05-10T07:30:42;15.80;90.90
43651;DHT22;29247;50.944;5.382;2023-05-10T07:33:09;15.80;90.90
43651;DHT22;29247;50.944;5.382;2023-05-10T07:35:35;15.80;90.90
43651;DHT22;29247;50.944;5.382;2023-05-10T07:38:02;15.80;90.90
43651;DHT22;29247;50.944;5.382;2023-05-10T07:40:28;15.80;90.90
43651;DHT22;29247;50.944;5.382;2023-05-10T07:42:54;15.80;90.90
43651;DHT22;29247;50.944;5.382;2023-05-10T07:45:20;15.90;91.00
43651;DHT22;29247;50.944;5.382;2023-05-10T07:47:46;15.90;91.00
43651;DHT22;29247;50.944;5.382;2023-05-10T07:50:11;15.90;91.00
43651;DHT22;29247;50.944;5.382;2023-05-10T07:52:37;16.00;91.10
43651;DHT22;29247;50.944;5.382;2023-05-10T07:55:03;16.00;91.10
43651;DHT22;29247;50.944;5.382;2023-05-10T07:57:29;16.00;91.00
43651;DHT22;29247;50.944;5.382;2023-05-10T07:59:54;16.00;91.00
43651;DHT22;29247;50.944;5.382;2023-05-10T08:02:20;16.10;91.10
43651;DHT22;29247;50.944;5.382;2023-05-10T08:04:46;16.10;91.20
43651;DHT22;29247;50.944;5.382;2023-05-10T08:07:12;16.20;91.20
43651;DHT22;29247;50.944;5.382;2023-05-10T08:09:37;16.20;91.10
43651;DHT22;29247;50.944;5.382;2023-05-10T08:12:03;16.20;91.00
43651;DHT22;29247;50.944;5.382;2023-05-10T08:14:29;16.30;90.90
43651;DHT22;29247;50.944;5.382;2023-05-10T08:16:55;16.30;90.90
43651;DHT22;29247;50.944;5.382;2023-05-10T08:19:21;16.20;90.70
43651;DHT22;29247;50.944;5.382;2023-05-10T08:21:49;16.20;90.70
43651;DHT22;29247;50.944;5.382;2023-05-10T08:24:15;16.20;90.50
43651;DHT22;29247;50.944;5.382;2023-05-10T08:26:43;16.20;90.40
43651;DHT22;29247;50.944;5.382;2023-05-10T08:29:09;16.10;90.30
43651;DHT22;29247;50.944;5.382;2023-05-10T08:31:35;16.10;90.20
43651;DHT22;29247;50.944;5.382;2023-05-10T08:34:01;16.00;90.10
43651;DHT22;29247;50.944;5.382;2023-05-10T08:36:29;16.00;90.10
43651;DHT22;29247;50.944;5.382;2023-05-10T08:38:56;15.90;90.10
43651;DHT22;29247;50.944;5.382;2023-05-10T08:41:22;15.90;90.20
43651;DHT22;29247;50.944;5.382;2023-05-10T08:44:09;15.90;90.30
43651;DHT22;29247;50.944;5.382;2023-05-10T08:46:37;15.90;90.20
43651;DHT22;29247;50.944;5.382;2023-05-10T08:49:11;15.90;90.20
43651;DHT22;29247;50.944;5.382;2023-05-10T08:51:40;15.90;90.10
43651;DHT22;29247;50.944;5.382;2023-05-10T08:54:11;15.90;90.20
43651;DHT22;29247;50.944;5.382;2023-05-10T08:56:40;15.90;90.10
43651;DHT22;29247;50.944;5.382;2023-05-10T08:59:05;15.90;90.10
43651;DHT22;29247;50.944;5.382;2023-05-10T09:01:32;15.90;90.20
43651;DHT22;29247;50.944;5.382;2023-05-10T09:04:01;15.90;90.20
43651;DHT22;29247;50.944;5.382;2023-05-10T09:06:28;15.90;90.30
43651;DHT22;29247;50.944;5.382;2023-05-10T09:08:57;15.90;90.20
43651;DHT22;29247;50.944;5.382;2023-05-10T09:11:24;15.90;90.20
43651;DHT22;29247;50.944;5.382;2023-05-10T09:13:53;15.90;90.20
43651;DHT22;29247;50.944;5.382;2023-05-10T09:16:19;15.90;90.00
43651;DHT22;29247;50.944;5.382;2023-05-10T09:18:45;15.90;90.00
43651;DHT22;29247;50.944;5.382;2023-05-10T09:21:11;15.90;90.00
43651;DHT22;29247;50.944;5.382;2023-05-10T09:23:37;15.90;90.00
43651;DHT22;29247;50.944;5.382;2023-05-10T09:26:05;15.90;90.00
43651;DHT22;29247;50.944;5.382;2023-05-10T09:28:49;15.90;90.00
43651;DHT22;29247;50.944;5.382;2023-05-10T09:31:18;15.90;90.00
43651;DHT22;29247;50.944;5.382;2023-05-10T09:33:48;15.90;89.90
43651;DHT22;29247;50.944;5.382;2023-05-10T09:36:15;15.90;90.10
43651;DHT22;29247;50.944;5.382;2023-05-10T09:38:47;15.90;90.20
43651;DHT22;29247;50.944;5.382;2023-05-10T09:41:23;16.00;90.30
43651;DHT22;29247;50.944;5.382;2023-05-10T09:43:50;16.00;90.10
43651;DHT22;29247;50.944;5.382;2023-05-10T09:46:20;16.10;90.30
43651;DHT22;29247;50.944;5.382;2023-05-10T09:48:48;16.10;90.30
43651;DHT22;29247;50.944;5.382;2023-05-10T09:51:20;16.20;90.50
43651;DHT22;29247;50.944;5.382;2023-05-10T09:53:49;16.30;90.70
43651;DHT22;29247;50.944;5.382;2023-05-10T09:56:33;16.40;90.60
43651;DHT22;29247;50.944;5.382;2023-05-10T09:59:09;16.50;90.60
43651;DHT22;29247;50.944;5.382;2023-05-10T10:01:35;16.60;90.50
43651;DHT22;29247;50.944;5.382;2023-05-10T10:04:10;16.60;90.40
43651;DHT22;29247;50.944;5.382;2023-05-10T10:06:40;16.70;90.20
43651;DHT22;29247;50.944;5.382;2023-05-10T10:09:09;16.70;90.00
43651;DHT22;29247;50.944;5.382;2023-05-10T10:11:38;16.80;90.00
43651;DHT22;29247;50.944;5.382;2023-05-10T10:14:05;16.80;89.40
43651;DHT22;29247;50.944;5.382;2023-05-10T10:16:31;16.80;89.40
43651;DHT22;29247;50.944;5.382;2023-05-10T10:19:00;16.90;89.50
43651;DHT22;29247;50.944;5.382;2023-05-10T10:21:28;16.90;88.90
43651;DHT22;29247;50.944;5.382;2023-05-10T10:23:54;16.90;88.80
43651;DHT22;29247;50.944;5.382;2023-05-10T10:26:21;16.90;88.50
43651;DHT22;29247;50.944;5.382;2023-05-10T10:31:39;16.90;87.80
43651;DHT22;29247;50.944;5.382;2023-05-10T10:34:09;16.90;87.70
43651;DHT22;29247;50.944;5.382;2023-05-10T10:36:46;16.90;88.80
43651;DHT22;29247;50.944;5.382;2023-05-10T10:39:13;16.90;88.40
43651;DHT22;29247;50.944;5.382;2023-05-10T10:41:48;17.00;88.50
43651;DHT22;29247;50.944;5.382;2023-05-10T10:49:49;17.10;88.30
43651;DHT22;29247;50.944;5.382;2023-05-10T10:52:36;17.10;88.50
43651;DHT22;29247;50.944;5.382;2023-05-10T10:55:05;17.10;88.50
43651;DHT22;29247;50.944;5.382;2023-05-10T10:57:53;17.20;88.40
43651;DHT22;29247;50.944;5.382;2023-05-10T11:00:26;17.30;89.00
43651;DHT22;29247;50.944;5.382;2023-05-10T11:03:06;17.30;88.00
43651;DHT22;29247;50.944;5.382;2023-05-10T11:05:39;17.30;88.10
43651;DHT22;29247;50.944;5.382;2023-05-10T11:08:14;17.30;88.00
43651;DHT22;29247;50.944;5.382;2023-05-10T11:10:50;17.40;87.80
43651;DHT22;29247;50.944;5.382;2023-05-10T11:13:30;17.40;87.80
43651;DHT22;29247;50.944;5.382;2023-05-10T11:16:09;17.50;87.60
43651;DHT22;29247;50.944;5.382;2023-05-10T11:18:38;17.50;87.40
43651;DHT22;29247;50.944;5.382;2023-05-10T11:21:10;17.50;87.60
43651;DHT22;29247;50.944;5.382;2023-05-10T11:26:08;17.50;87.40
43651;DHT22;29247;50.944;5.382;2023-05-10T11:28:48;17.60;87.10
43651;DHT22;29247;50.944;5.382;2023-05-10T11:31:17;17.60;86.80
43651;DHT22;29247;50.944;5.382;2023-05-10T11:36:20;17.60;86.60
43651;DHT22;29247;50.944;5.382;2023-05-10T11:38:47;17.50;86.50
43651;DHT22;29247;50.944;5.382;2023-05-10T11:41:17;17.60;86.10
43651;DHT22;29247;50.944;5.382;2023-05-10T11:43:49;17.50;85.90
43651;DHT22;29247;50.944;5.382;2023-05-10T11:46:18;17.50;85.90
43651;DHT22;29247;50.944;5.382;2023-05-10T11:48:46;17.50;85.30
43651;DHT22;29247;50.944;5.382;2023-05-10T11:51:15;17.50;85.40
43651;DHT22;29247;50.944;5.382;2023-05-10T11:53:41;17.50;84.70
43651;DHT22;29247;50.944;5.382;2023-05-10T11:56:13;17.50;85.20
43651;DHT22;29247;50.944;5.382;2023-05-10T11:58:39;17.50;85.40
43651;DHT22;29247;50.944;5.382;2023-05-10T12:01:06;17.50;85.00
43651;DHT22;29247;50.944;5.382;2023-05-10T12:03:33;17.50;85.40
43651;DHT22;29247;50.944;5.382;2023-05-10T12:06:00;17.50;85.50
43651;DHT22;29247;50.944;5.382;2023-05-10T12:08:28;17.50;85.60
43651;DHT22;29247;50.944;5.382;2023-05-10T12:11:07;17.50;85.30
43651;DHT22;29247;50.944;5.382;2023-05-10T12:13:42;17.60;85.40
43651;DHT22;29247;50.944;5.382;2023-05-10T12:18:40;17.60;85.90
43651;DHT22;29247;50.944;5.382;2023-05-10T12:21:12;17.70;86.10
43651;DHT22;29247;50.944;5.382;2023-05-10T12:23:39;17.70;86.10
43651;DHT22;29247;50.944;5.382;2023-05-10T12:26:05;17.70;85.90
43651;DHT22;29247;50.944;5.382;2023-05-10T12:28:32;17.80;85.50
43651;DHT22;29247;50.944;5.382;2023-05-10T12:30:59;17.80;85.10
43651;DHT22;29247;50.944;5.382;2023-05-10T12:33:44;17.80;85.20
43651;DHT22;29247;50.944;5.382;2023-05-10T12:36:15;17.80;85.30
43651;DHT22;29247;50.944;5.382;2023-05-10T12:38:42;17.80;85.00
43651;DHT22;29247;50.944;5.382;2023-05-10T12:41:11;17.80;84.60
43651;DHT22;29247;50.944;5.382;2023-05-10T12:43:38;17.80;84.60
43651;DHT22;29247;50.944;5.382;2023-05-10T12:46:06;17.80;84.60
43651;DHT22;29247;50.944;5.382;2023-05-10T12:48:32;17.80;84.80
43651;DHT22;29247;50.944;5.382;2023-05-10T12:51:02;17.90;85.10
43651;DHT22;29247;50.944;5.382;2023-05-10T12:53:28;17.80;84.60
43651;DHT22;29247;50.944;5.382;2023-05-10T12:55:59;17.90;84.80
43651;DHT22;29247;50.944;5.382;2023-05-10T12:58:25;17.90;85.00
43651;DHT22;29247;50.944;5.382;2023-05-10T13:00:51;17.90;84.70
43651;DHT22;29247;50.944;5.382;2023-05-10T13:03:17;18.00;84.80
43651;DHT22;29247;50.944;5.382;2023-05-10T13:05:43;18.00;84.80
43651;DHT22;29247;50.944;5.382;2023-05-10T13:08:09;18.00;85.10
43651;DHT22;29247;50.944;5.382;2023-05-10T13:10:35;18.00;84.70
43651;DHT22;29247;50.944;5.382;2023-05-10T13:13:03;18.00;84.80
43651;DHT22;29247;50.944;5.382;2023-05-10T13:15:34;18.00;85.00
43651;DHT22;29247;50.944;5.382;2023-05-10T13:18:00;18.00;85.10
43651;DHT22;29247;50.944;5.382;2023-05-10T13:20:28;18.10;85.30
43651;DHT22;29247;50.944;5.382;2023-05-10T13:22:54;18.10;85.20
43651;DHT22;29247;50.944;5.382;2023-05-10T13:25:20;18.10;85.10
43651;DHT22;29247;50.944;5.382;2023-05-10T13:27:46;18.20;85.40
43651;DHT22;29247;50.944;5.382;2023-05-10T13:30:12;18.10;84.80
43651;DHT22;29247;50.944;5.382;2023-05-10T13:32:38;18.10;84.40
43651;DHT22;29247;50.944;5.382;2023-05-10T13:35:04;18.20;84.70
43651;DHT22;29247;50.944;5.382;2023-05-10T13:37:31;18.20;85.00
43651;DHT22;29247;50.944;5.382;2023-05-10T13:39:57;18.10;85.10
43651;DHT22;29247;50.944;5.382;2023-05-10T13:42:23;18.20;85.10
43651;DHT22;29247;50.944;5.382;2023-05-10T13:44:52;18.20;85.30
43651;DHT22;29247;50.944;5.382;2023-05-10T13:47:18;18.20;85.20
43651;DHT22;29247;50.944;5.382;2023-05-10T13:49:44;18.30;85.40
43651;DHT22;29247;50.944;5.382;2023-05-10T13:52:10;18.30;85.50
43651;DHT22;29247;50.944;5.382;2023-05-10T13:54:36;18.30;85.20
43651;DHT22;29247;50.944;5.382;2023-05-10T13:57:06;18.30;84.70
43651;DHT22;29247;50.944;5.382;2023-05-10T13:59:32;18.30;84.50
43651;DHT22;29247;50.944;5.382;2023-05-10T14:01:58;18.20;84.20
43651;DHT22;29247;50.944;5.382;2023-05-10T14:04:24;18.20;84.30
43651;DHT22;29247;50.944;5.382;2023-05-10T14:06:50;18.20;84.40
43651;DHT22;29247;50.944;5.382;2023-05-10T14:09:18;18.20;84.60
43651;DHT22;29247;50.944;5.382;2023-05-10T14:11:44;18.10;84.80
43651;DHT22;29247;50.944;5.382;2023-05-10T14:14:11;18.20;85.00
43651;DHT22;29247;50.944;5.382;2023-05-10T14:16:37;18.10;84.60
43651;DHT22;29247;50.944;5.382;2023-05-10T14:19:05;18.20;84.70
43651;DHT22;29247;50.944;5.382;2023-05-10T14:21:31;18.20;84.80
43651;DHT22;29247;50.944;5.382;2023-05-10T14:23:56;18.20;84.90
43651;DHT22;29247;50.944;5.382;2023-05-10T14:26:22;18.20;84.90
43651;DHT22;29247;50.944;5.382;2023-05-10T14:28:50;18.20;85.00
43651;DHT22;29247;50.944;5.382;2023-05-10T14:31:17;18.30;85.20
43651;DHT22;29247;50.944;5.382;2023-05-10T14:33:44;18.30;85.10
43651;DHT22;29247;50.944;5.382;2023-05-10T14:36:10;18.30;85.00
43651;DHT22;29247;50.944;5.382;2023-05-10T14:38:36;18.40;85.00
43651;DHT22;29247;50.944;5.382;2023-05-10T14:41:02;18.40;85.10
43651;DHT22;29247;50.944;5.382;2023-05-10T14:43:28;18.50;85.10
43651;DHT22;29247;50.944;5.382;2023-05-10T14:45:56;18.50;85.00
43651;DHT22;29247;50.944;5.382;2023-05-10T14:48:24;18.50;84.70
43651;DHT22;29247;50.944;5.382;2023-05-10T14:50:50;18.50;84.50
43651;DHT22;29247;50.944;5.382;2023-05-10T14:53:17;18.50;84.30
43651;DHT22;29247;50.944;5.382;2023-05-10T14:55:46;18.60;84.20
43651;DHT22;29247;50.944;5.382;2023-05-10T14:58:12;18.60;84.30
43651;DHT22;29247;50.944;5.382;2023-05-10T15:00:37;18.60;83.60
43651;DHT22;29247;50.944;5.382;2023-05-10T15:03:03;18.60;83.60
43651;DHT22;29247;50.944;5.382;2023-05-10T15:05:29;18.60;83.40
43651;DHT22;29247;50.944;5.382;2023-05-10T15:07:58;18.60;82.60
43651;DHT22;29247;50.944;5.382;2023-05-10T15:10:26;18.60;83.00
43651;DHT22;29247;50.944;5.382;2023-05-10T15:12:52;18.60;83.40
43651;DHT22;29247;50.944;5.382;2023-05-10T15:15:19;18.60;83.40
43651;DHT22;29247;50.944;5.382;2023-05-10T15:17:45;18.70;83.30
43651;DHT22;29247;50.944;5.382;2023-05-10T15:20:11;18.60;82.90
43651;DHT22;29247;50.944;5.382;2023-05-10T15:22:40;18.60;82.90
43651;DHT22;29247;50.944;5.382;2023-05-10T15:25:06;18.60;82.70
43651;DHT22;29247;50.944;5.382;2023-05-10T15:27:32;18.60;82.40
43651;DHT22;29247;50.944;5.382;2023-05-10T15:29:58;18.60;82.60
43651;DHT22;29247;50.944;5.382;2023-05-10T15:32:25;18.60;82.50
43651;DHT22;29247;50.944;5.382;2023-05-10T15:34:50;18.60;82.80
43651;DHT22;29247;50.944;5.382;2023-05-10T15:37:16;18.60;82.90
43651;DHT22;29247;50.944;5.382;2023-05-10T15:39:43;18.70;83.20
43651;DHT22;29247;50.944;5.382;2023-05-10T15:42:09;18.70;82.80
43651;DHT22;29247;50.944;5.382;2023-05-10T15:44:34;18.70;82.10
43651;DHT22;29247;50.944;5.382;2023-05-10T15:47:01;18.70;80.80
43651;DHT22;29247;50.944;5.382;2023-05-10T15:49:28;18.70;80.90
43651;DHT22;29247;50.944;5.382;2023-05-10T15:51:56;18.70;80.80
43651;DHT22;29247;50.944;5.382;2023-05-10T15:54:27;18.70;80.00
43651;DHT22;29247;50.944;5.382;2023-05-10T15:56:53;18.70;79.60
43651;DHT22;29247;50.944;5.382;2023-05-10T15:59:19;18.60;79.30
43651;DHT22;29247;50.944;5.382;2023-05-10T16:01:45;18.60;79.50
43651;DHT22;29247;50.944;5.382;2023-05-10T16:04:11;18.60;79.90
43651;DHT22;29247;50.944;5.382;2023-05-10T16:06:37;18.60;79.40
43651;DHT22;29247;50.944;5.382;2023-05-10T16:09:03;18.60;79.10